createdAt,value
2023-04-26T00:00:11.768Z,4.07
2023-04-26T00:02:38.450Z,3.80
2023-04-26T00:05:06.440Z,3.92
2023-04-26T00:07:33.956Z,3.63
2023-04-26T00:10:00.456Z,3.80
2023-04-26T00:12:27.066Z,4.22
2023-04-26T00:14:53.548Z,3.50
2023-04-26T00:17:20.004Z,3.35
2023-04-26T00:19:47.265Z,4.68
2023-04-26T00:22:13.797Z,3.80
2023-04-26T00:24:40.292Z,3.60
2023-04-26T00:27:10.042Z,4.13
2023-04-26T00:29:37.430Z,4.18
2023-04-26T00:32:04.617Z,3.72
2023-04-26T00:34:35.976Z,4.28
2023-04-26T00:37:03.542Z,3.85
2023-04-26T00:39:30.234Z,3.97
2023-04-26T00:41:57.232Z,3.60
2023-04-26T00:44:23.847Z,3.88
2023-04-26T00:46:52.488Z,3.55
2023-04-26T00:49:21.886Z,3.72
2023-04-26T00:51:50.170Z,3.63
2023-04-26T00:54:16.735Z,3.58
2023-04-26T00:56:43.466Z,3.70
2023-04-26T00:59:10.060Z,3.53
2023-04-26T01:01:37.856Z,3.65
2023-04-26T01:04:04.674Z,3.58
2023-04-26T01:06:35.441Z,3.90
2023-04-26T01:09:08.149Z,4.15
2023-04-26T01:11:35.989Z,3.13
2023-04-26T01:14:03.878Z,3.60
2023-04-26T01:16:32.820Z,4.18
2023-04-26T01:19:12.352Z,3.67
2023-04-26T01:21:42.614Z,4.32
2023-04-26T01:24:13.633Z,3.88
2023-04-26T01:26:45.598Z,3.95
2023-04-26T01:29:21.883Z,4.07
2023-04-26T01:31:48.974Z,3.83
2023-04-26T01:34:16.121Z,4.30
2023-04-26T01:36:45.720Z,3.72
2023-04-26T01:39:12.823Z,3.92
2023-04-26T01:41:39.399Z,4.10
2023-04-26T01:44:05.928Z,3.80
2023-04-26T01:46:32.475Z,4.57
2023-04-26T01:48:59.083Z,4.88
2023-04-26T01:51:25.987Z,4.00
2023-04-26T01:53:52.768Z,3.88
2023-04-26T01:56:20.046Z,4.05
2023-04-26T01:58:46.613Z,4.25
2023-04-26T02:01:13.175Z,4.15
2023-04-26T02:03:39.757Z,4.15
2023-04-26T02:06:06.455Z,4.72
2023-04-26T02:08:33.461Z,4.63
2023-04-26T02:11:00.008Z,4.28
2023-04-26T02:13:26.973Z,3.78
2023-04-26T02:15:54.380Z,3.35
2023-04-26T02:18:22.527Z,3.60
2023-04-26T02:20:50.224Z,3.50
2023-04-26T02:23:17.033Z,3.60
2023-04-26T02:25:47.333Z,3.50
2023-04-26T02:28:13.873Z,4.18
2023-04-26T02:30:40.503Z,3.40
2023-04-26T02:33:08.934Z,3.63
2023-04-26T02:35:37.328Z,3.63
2023-04-26T02:38:05.030Z,3.72
2023-04-26T02:40:31.601Z,3.53
2023-04-26T02:42:58.301Z,4.00
2023-04-26T02:45:24.816Z,3.47
2023-04-26T02:47:51.438Z,3.47
2023-04-26T02:50:18.105Z,3.35
2023-04-26T02:52:44.973Z,3.00
2023-04-26T02:55:11.480Z,4.03
2023-04-26T02:57:38.396Z,3.45
2023-04-26T03:00:08.145Z,4.35
2023-04-26T03:02:36.434Z,3.55
2023-04-26T03:05:03.552Z,3.55
2023-04-26T03:07:31.370Z,3.17
2023-04-26T03:09:58.008Z,3.38
2023-04-26T03:12:24.527Z,3.33
2023-04-26T03:14:51.082Z,4.53
2023-04-26T03:17:18.160Z,3.53
2023-04-26T03:19:44.879Z,3.47
2023-04-26T03:22:15.962Z,3.60
2023-04-26T03:24:44.191Z,3.65
2023-04-26T03:27:11.891Z,3.63
2023-04-26T03:29:39.324Z,3.55
2023-04-26T03:32:07.264Z,3.40
2023-04-26T03:34:34.258Z,3.50
2023-04-26T03:37:03.206Z,5.40
2023-04-26T03:39:30.019Z,5.45
2023-04-26T03:41:56.551Z,3.60
2023-04-26T03:44:23.097Z,3.90
2023-04-26T03:46:49.637Z,3.30
2023-04-26T03:49:16.191Z,3.55
2023-04-26T03:51:42.704Z,3.60
2023-04-26T03:54:09.220Z,3.83
2023-04-26T03:56:36.945Z,3.90
2023-04-26T03:59:03.811Z,4.78
2023-04-26T04:01:32.161Z,4.30
2023-04-26T04:03:59.358Z,3.97
2023-04-26T04:06:26.840Z,4.78
2023-04-26T04:08:53.747Z,4.50
2023-04-26T04:11:21.714Z,3.78
2023-04-26T04:13:48.285Z,3.95
2023-04-26T04:16:14.981Z,4.03
2023-04-26T04:18:41.842Z,3.85
2023-04-26T04:21:08.472Z,4.07
2023-04-26T04:23:35.454Z,3.83
2023-04-26T04:26:06.796Z,4.30
2023-04-26T04:28:34.317Z,3.95
2023-04-26T04:31:01.670Z,4.60
2023-04-26T04:33:28.495Z,5.53
2023-04-26T04:35:56.411Z,5.60
2023-04-26T04:38:23.427Z,4.35
2023-04-26T04:40:51.618Z,4.30
2023-04-26T04:43:18.778Z,4.90
2023-04-26T04:45:46.365Z,3.92
2023-04-26T04:48:12.916Z,3.67
2023-04-26T04:50:40.349Z,3.97
2023-04-26T04:53:08.966Z,4.22
2023-04-26T04:55:36.579Z,3.72
2023-04-26T04:58:04.067Z,3.72
2023-04-26T05:00:31.971Z,3.67
2023-04-26T05:03:04.775Z,3.65
2023-04-26T05:05:31.632Z,3.13
2023-04-26T05:07:58.162Z,3.67
2023-04-26T05:10:24.727Z,3.85
2023-04-26T05:12:52.225Z,4.05
2023-04-26T05:15:19.065Z,3.40
2023-04-26T05:17:45.639Z,3.88
2023-04-26T05:20:22.369Z,3.80
2023-04-26T05:22:49.545Z,3.75
2023-04-26T05:25:17.531Z,4.00
2023-04-26T05:27:48.169Z,4.13
2023-04-26T05:30:34.371Z,4.32
2023-04-26T05:33:32.926Z,4.47
2023-04-26T05:36:29.827Z,4.53
2023-04-26T05:38:56.653Z,4.10
2023-04-26T05:41:23.281Z,4.07
2023-04-26T05:43:49.936Z,4.22
2023-04-26T05:46:16.668Z,4.22
2023-04-26T05:48:43.303Z,5.20
2023-04-26T05:51:09.885Z,4.18
2023-04-26T05:53:36.545Z,3.90
2023-04-26T05:56:03.318Z,4.45
2023-04-26T05:58:29.894Z,3.92
2023-04-26T06:00:56.732Z,3.90
2023-04-26T06:03:23.389Z,4.38
2023-04-26T06:05:50.532Z,4.63
2023-04-26T06:08:17.247Z,4.70
2023-04-26T06:10:43.760Z,4.25
2023-04-26T06:13:10.968Z,4.40
2023-04-26T06:15:37.764Z,4.03
2023-04-26T06:18:06.013Z,5.00
2023-04-26T06:20:33.268Z,5.00
2023-04-26T06:22:59.819Z,4.90
2023-04-26T06:25:26.410Z,4.57
2023-04-26T06:27:52.924Z,5.35
2023-04-26T06:30:19.535Z,4.53
2023-04-26T06:32:47.785Z,4.30
2023-04-26T06:35:14.522Z,4.65
2023-04-26T06:37:41.633Z,4.88
2023-04-26T06:40:09.162Z,5.07
2023-04-26T06:42:36.689Z,4.88
2023-04-26T06:45:21.976Z,4.50
2023-04-26T06:47:51.863Z,4.55
2023-04-26T06:50:18.605Z,4.10
2023-04-26T06:52:45.089Z,4.32
2023-04-26T06:55:11.757Z,4.57
2023-04-26T06:57:38.600Z,4.20
2023-04-26T07:00:06.083Z,4.68
2023-04-26T07:02:32.764Z,4.25
2023-04-26T07:04:59.379Z,4.50
2023-04-26T07:07:26.254Z,4.25
2023-04-26T07:09:52.965Z,3.97
2023-04-26T07:12:19.443Z,4.20
2023-04-26T07:14:46.170Z,5.30
2023-04-26T07:17:12.725Z,3.80
2023-04-26T07:19:39.260Z,4.25
2023-04-26T07:22:06.093Z,4.70
2023-04-26T07:24:32.579Z,4.40
2023-04-26T07:26:59.115Z,4.65
2023-04-26T07:29:25.593Z,4.50
2023-04-26T07:31:52.753Z,4.93
2023-04-26T07:34:19.694Z,4.30
2023-04-26T07:36:46.184Z,4.65
2023-04-26T07:39:12.672Z,4.28
2023-04-26T07:41:40.257Z,4.30
2023-04-26T07:44:08.390Z,4.22
2023-04-26T07:46:35.082Z,4.32
2023-04-26T07:49:01.835Z,4.25
2023-04-26T07:51:28.533Z,4.38
2023-04-26T07:53:58.212Z,4.20
2023-04-26T07:56:24.903Z,4.18
2023-04-26T07:58:51.698Z,4.05
2023-04-26T08:01:18.448Z,3.38
2023-04-26T08:03:45.441Z,4.00
2023-04-26T08:06:12.752Z,3.88
2023-04-26T08:08:44.691Z,3.80
2023-04-26T08:11:11.756Z,2.88
2023-04-26T08:13:38.322Z,2.97
2023-04-26T08:16:05.613Z,3.10
2023-04-26T08:18:32.190Z,2.75
2023-04-26T08:20:58.823Z,2.47
2023-04-26T08:23:25.408Z,3.22
2023-04-26T08:25:52.025Z,2.55
2023-04-26T08:28:18.551Z,2.63
2023-04-26T08:30:45.332Z,3.05
2023-04-26T08:33:12.133Z,3.58
2023-04-26T08:35:38.608Z,2.20
2023-04-26T08:38:05.197Z,2.38
2023-04-26T08:40:32.971Z,1.90
2023-04-26T08:42:59.588Z,2.40
2023-04-26T08:45:26.155Z,3.15
2023-04-26T08:48:05.674Z,2.42
2023-04-26T08:50:34.426Z,2.72
2023-04-26T08:53:01.095Z,3.10
2023-04-26T08:55:28.049Z,2.40
2023-04-26T08:57:55.988Z,2.28
2023-04-26T09:00:23.159Z,2.78
2023-04-26T09:02:52.975Z,2.60
2023-04-26T09:05:27.169Z,2.40
2023-04-26T09:10:23.350Z,2.65
2023-04-26T09:12:53.689Z,2.63
2023-04-26T09:15:24.357Z,2.65
2023-04-26T09:17:51.969Z,2.38
2023-04-26T09:20:22.193Z,2.88
2023-04-26T09:22:53.333Z,2.40
2023-04-26T09:25:30.990Z,2.42
2023-04-26T09:27:58.902Z,2.60
2023-04-26T09:30:26.590Z,2.22
2023-04-26T09:33:03.986Z,1.90
2023-04-26T09:35:34.643Z,2.10
2023-04-26T09:38:07.876Z,2.88
2023-04-26T09:40:38.516Z,2.30
2023-04-26T09:43:08.972Z,2.50
2023-04-26T09:45:55.666Z,2.05
2023-04-26T09:48:28.606Z,2.20
2023-04-26T09:51:00.041Z,2.03
2023-04-26T09:53:39.233Z,2.38
2023-04-26T09:56:18.722Z,2.40
2023-04-26T09:58:52.327Z,2.13
2023-04-26T10:03:47.370Z,2.33
2023-04-26T10:06:14.595Z,2.08
2023-04-26T10:08:41.929Z,2.40
2023-04-26T10:11:11.214Z,2.75
2023-04-26T10:13:38.423Z,2.15
2023-04-26T10:16:06.586Z,2.35
2023-04-26T10:18:33.669Z,2.28
2023-04-26T10:21:04.993Z,2.30
2023-04-26T10:23:33.214Z,2.13
2023-04-26T10:25:59.792Z,2.50
2023-04-26T10:29:01.428Z,2.22
2023-04-26T10:32:04.541Z,2.00
2023-04-26T10:34:33.131Z,2.50
2023-04-26T10:37:13.640Z,2.17
2023-04-26T10:39:41.690Z,3.33
2023-04-26T10:42:25.419Z,2.50
2023-04-26T10:44:57.379Z,2.25
2023-04-26T10:47:32.849Z,2.50
2023-04-26T10:50:17.417Z,2.90
2023-04-26T10:53:04.337Z,1.95
2023-04-26T10:55:41.671Z,2.25
2023-04-26T10:58:33.914Z,2.13
2023-04-26T11:01:17.588Z,2.13
2023-04-26T11:04:01.634Z,2.10
2023-04-26T11:06:48.088Z,2.33
2023-04-26T11:09:37.435Z,1.98
2023-04-26T11:12:05.539Z,2.17
2023-04-26T11:14:34.615Z,2.15
2023-04-26T11:17:05.486Z,2.00
2023-04-26T11:19:32.883Z,2.05
2023-04-26T11:22:00.867Z,1.92
2023-04-26T11:24:28.457Z,1.98
2023-04-26T11:26:54.952Z,2.63
2023-04-26T11:29:21.950Z,1.77
2023-04-26T11:31:56.275Z,1.98
2023-04-26T11:34:36.371Z,2.55
2023-04-26T11:37:04.662Z,2.22
2023-04-26T11:39:35.532Z,2.53
2023-04-26T11:42:10.403Z,2.08
2023-04-26T11:44:37.955Z,2.28
2023-04-26T11:47:06.454Z,2.35
2023-04-26T11:49:35.555Z,2.47
2023-04-26T11:52:03.349Z,1.77
2023-04-26T11:54:31.505Z,2.00
2023-04-26T11:56:58.829Z,2.28
2023-04-26T11:59:26.709Z,2.13
2023-04-26T12:01:53.667Z,2.08
2023-04-26T12:04:30.215Z,2.08
2023-04-26T12:06:57.988Z,2.08
2023-04-26T12:09:27.967Z,1.80
2023-04-26T12:12:02.037Z,2.08
2023-04-26T12:14:32.084Z,2.33
2023-04-26T12:17:02.951Z,2.00
2023-04-26T12:19:37.004Z,2.83
2023-04-26T12:22:04.583Z,1.90
2023-04-26T12:24:36.980Z,2.17
2023-04-26T12:27:06.670Z,2.20
2023-04-26T12:29:33.620Z,6.22
2023-04-26T12:32:01.230Z,2.70
2023-04-26T12:34:27.883Z,3.00
2023-04-26T12:36:54.741Z,2.38
2023-04-26T12:39:21.256Z,1.95
2023-04-26T12:41:47.767Z,2.20
2023-04-26T12:44:14.762Z,1.85
2023-04-26T12:46:41.464Z,2.15
2023-04-26T12:49:08.118Z,2.25
2023-04-26T12:51:34.613Z,2.50
2023-04-26T12:54:01.141Z,2.38
2023-04-26T12:56:29.461Z,1.73
2023-04-26T12:58:56.155Z,2.53
2023-04-26T13:01:22.744Z,2.30
2023-04-26T13:03:49.549Z,1.85
2023-04-26T13:06:16.680Z,2.10
2023-04-26T13:08:43.294Z,2.17
2023-04-26T13:11:09.844Z,2.70
2023-04-26T13:13:43.819Z,1.80
2023-04-26T13:16:12.491Z,2.20
2023-04-26T13:18:40.135Z,1.70
2023-04-26T13:21:06.813Z,1.95
2023-04-26T13:23:33.377Z,1.90
2023-04-26T13:25:59.934Z,2.50
2023-04-26T13:28:26.374Z,1.85
2023-04-26T13:30:52.914Z,1.73
2023-04-26T13:33:21.451Z,2.58
2023-04-26T13:35:48.455Z,1.83
2023-04-26T13:38:16.421Z,1.70
2023-04-26T13:40:43.841Z,1.90
2023-04-26T13:43:10.552Z,2.00
2023-04-26T13:45:37.067Z,2.00
2023-04-26T13:48:04.049Z,2.20
2023-04-26T13:50:30.683Z,1.77
2023-04-26T13:52:57.223Z,1.80
2023-04-26T13:55:23.756Z,2.35
2023-04-26T13:57:50.331Z,1.90
2023-04-26T14:00:17.362Z,2.00
2023-04-26T14:02:46.069Z,2.08
2023-04-26T14:05:13.102Z,1.80
2023-04-26T14:07:40.825Z,1.85
2023-04-26T14:10:07.919Z,1.52
2023-04-26T14:12:34.991Z,1.75
2023-04-26T14:15:05.879Z,1.90
2023-04-26T14:17:33.061Z,1.85
2023-04-26T14:19:59.535Z,2.03
2023-04-26T14:22:27.011Z,1.75
2023-04-26T14:24:53.548Z,1.77
2023-04-26T14:27:20.385Z,2.33
2023-04-26T14:29:46.921Z,1.85
2023-04-26T14:32:13.511Z,1.90
2023-04-26T14:34:40.428Z,2.00
2023-04-26T14:37:07.596Z,2.30
2023-04-26T14:39:34.729Z,2.40
2023-04-26T14:42:01.716Z,2.20
2023-04-26T14:44:28.232Z,2.10
2023-04-26T14:46:54.733Z,1.73
2023-04-26T14:49:21.340Z,1.80
2023-04-26T14:51:47.829Z,1.95
2023-04-26T14:54:15.411Z,2.10
2023-04-26T14:56:42.193Z,1.98
2023-04-26T14:59:08.724Z,1.92
2023-04-26T15:01:35.481Z,1.73
2023-04-26T15:04:02.092Z,2.20
2023-04-26T15:06:28.980Z,2.10
2023-04-26T15:08:55.472Z,1.60
2023-04-26T15:11:21.932Z,1.80
2023-04-26T15:13:48.452Z,2.45
2023-04-26T15:16:14.974Z,2.00
2023-04-26T15:18:41.490Z,1.80
2023-04-26T15:21:09.127Z,1.88
2023-04-26T15:23:35.991Z,2.15
2023-04-26T15:26:03.451Z,1.88
2023-04-26T15:28:30.293Z,1.92
2023-04-26T15:31:09.354Z,1.83
2023-04-26T15:33:36.409Z,1.83
2023-04-26T15:36:03.184Z,2.13
2023-04-26T15:38:29.662Z,1.95
2023-04-26T15:40:56.184Z,1.80
2023-04-26T15:43:22.725Z,1.85
2023-04-26T15:45:49.778Z,1.70
2023-04-26T15:48:16.497Z,1.92
2023-04-26T15:50:43.018Z,1.95
2023-04-26T15:53:09.711Z,1.65
2023-04-26T15:55:36.297Z,1.73
2023-04-26T15:58:02.930Z,2.30
2023-04-26T16:00:31.240Z,2.78
2023-04-26T16:02:58.001Z,2.47
2023-04-26T16:05:24.646Z,1.70
2023-04-26T16:07:51.205Z,1.67
2023-04-26T16:10:17.724Z,1.77
2023-04-26T16:12:44.788Z,2.33
2023-04-26T16:15:11.936Z,2.10
2023-04-26T16:17:39.187Z,1.77
2023-04-26T16:20:07.839Z,2.08
2023-04-26T16:22:34.856Z,1.70
2023-04-26T16:25:03.253Z,2.05
2023-04-26T16:27:29.769Z,2.60
2023-04-26T16:29:57.058Z,2.17
2023-04-26T16:32:23.894Z,1.90
2023-04-26T16:34:51.464Z,1.88
2023-04-26T16:37:18.107Z,2.30
2023-04-26T16:39:44.598Z,1.90
2023-04-26T16:42:11.120Z,2.20
2023-04-26T16:44:37.589Z,1.55
2023-04-26T16:47:04.342Z,1.73
2023-04-26T16:49:30.891Z,1.83
2023-04-26T16:51:58.987Z,1.90
2023-04-26T16:54:26.239Z,2.13
2023-04-26T16:56:53.819Z,1.75
2023-04-26T16:59:20.720Z,1.92
2023-04-26T17:01:47.513Z,1.70
2023-04-26T17:04:14.356Z,1.67
2023-04-26T17:06:41.161Z,1.80
2023-04-26T17:09:08.711Z,1.80
2023-04-26T17:11:37.298Z,2.15
2023-04-26T17:14:04.499Z,1.73
2023-04-26T17:16:31.703Z,2.22
2023-04-26T17:18:58.455Z,2.00
2023-04-26T17:21:25.321Z,1.73
2023-04-26T17:23:52.432Z,1.83
2023-04-26T17:26:19.197Z,1.95
2023-04-26T17:28:45.767Z,2.50
2023-04-26T17:31:12.301Z,2.20
2023-04-26T17:33:38.871Z,1.85
2023-04-26T17:36:06.222Z,2.08
2023-04-26T17:38:32.771Z,2.40
2023-04-26T17:40:59.582Z,1.65
2023-04-26T17:43:26.189Z,1.90
2023-04-26T17:45:52.961Z,2.33
2023-04-26T17:48:19.594Z,1.83
2023-04-26T17:50:46.283Z,2.50
2023-04-26T17:53:12.852Z,2.25
2023-04-26T17:55:39.350Z,2.00
2023-04-26T17:58:06.302Z,2.45
2023-04-26T18:00:32.924Z,2.08
2023-04-26T18:03:02.824Z,3.75
2023-04-26T18:05:29.514Z,2.55
2023-04-26T18:07:56.511Z,2.22
2023-04-26T18:10:23.214Z,2.17
2023-04-26T18:12:49.743Z,2.25
2023-04-26T18:15:16.209Z,2.60
2023-04-26T18:17:43.504Z,2.33
2023-04-26T18:20:11.223Z,2.78
2023-04-26T18:22:37.770Z,2.30
2023-04-26T18:25:04.853Z,2.55
2023-04-26T18:27:31.947Z,2.72
2023-04-26T18:29:58.643Z,3.20
2023-04-26T18:32:25.188Z,4.75
2023-04-26T18:34:52.182Z,3.25
2023-04-26T18:37:19.164Z,2.95
2023-04-26T18:39:45.670Z,2.70
2023-04-26T18:42:12.550Z,2.97
2023-04-26T18:44:39.085Z,2.30
2023-04-26T18:47:05.829Z,4.35
2023-04-26T18:49:32.445Z,17.80
2023-04-26T18:51:59.146Z,3.42
2023-04-26T18:54:26.295Z,3.20
2023-04-26T18:56:52.914Z,3.33
2023-04-26T18:59:19.481Z,3.20
2023-04-26T19:01:46.182Z,2.85
2023-04-26T19:04:12.923Z,2.80
2023-04-26T19:06:42.504Z,2.97
2023-04-26T19:09:12.166Z,2.53
2023-04-26T19:11:38.926Z,2.88
2023-04-26T19:14:05.655Z,2.55
2023-04-26T19:16:32.405Z,2.65
2023-04-26T19:18:59.020Z,2.25
2023-04-26T19:21:25.629Z,2.50
2023-04-26T19:23:52.174Z,2.40
2023-04-26T19:26:18.663Z,2.42
2023-04-26T19:28:45.201Z,2.25
2023-04-26T19:31:11.704Z,2.55
2023-04-26T19:33:38.295Z,3.03
2023-04-26T19:36:04.927Z,2.85
2023-04-26T19:38:31.562Z,3.28
2023-04-26T19:40:58.099Z,2.47
2023-04-26T19:43:24.560Z,2.55
2023-04-26T19:45:51.253Z,2.85
2023-04-26T19:48:17.779Z,2.70
2023-04-26T19:50:46.369Z,8.52
2023-04-26T19:53:14.394Z,12.88
2023-04-26T19:55:42.319Z,4.53
2023-04-26T19:58:10.289Z,2.65
2023-04-26T20:00:37.848Z,3.15
2023-04-26T20:03:04.857Z,9.43
2023-04-26T20:05:31.499Z,6.97
2023-04-26T20:07:58.091Z,3.55
2023-04-26T20:10:24.821Z,2.65
2023-04-26T20:12:51.738Z,2.38
2023-04-26T20:15:18.462Z,2.63
2023-04-26T20:17:45.376Z,3.40
2023-04-26T20:20:12.576Z,2.90
2023-04-26T20:22:39.974Z,2.80
2023-04-26T20:25:07.119Z,3.13
2023-04-26T20:27:33.841Z,2.80
2023-04-26T20:30:00.576Z,2.55
2023-04-26T20:32:27.169Z,3.45
2023-04-26T20:34:54.007Z,3.17
2023-04-26T20:37:20.494Z,2.70
2023-04-26T20:39:47.242Z,2.80
2023-04-26T20:42:14.350Z,3.60
2023-04-26T20:44:40.818Z,3.50
2023-04-26T20:47:07.832Z,3.22
2023-04-26T20:49:34.332Z,4.03
2023-04-26T20:52:01.258Z,4.00
2023-04-26T20:54:27.763Z,3.13
2023-04-26T20:56:54.274Z,3.78
2023-04-26T20:59:20.810Z,3.20
2023-04-26T21:01:47.402Z,2.60
2023-04-26T21:04:14.112Z,2.72
2023-04-26T21:06:40.849Z,3.22
2023-04-26T21:09:07.549Z,2.92
2023-04-26T21:11:34.289Z,3.25
2023-04-26T21:14:00.910Z,6.20
2023-04-26T21:16:27.589Z,5.38
2023-04-26T21:18:54.080Z,4.20
2023-04-26T21:21:20.785Z,3.63
2023-04-26T21:23:47.382Z,3.70
2023-04-26T21:26:13.836Z,4.20
2023-04-26T21:28:40.315Z,3.67
2023-04-26T21:31:07.670Z,3.05
2023-04-26T21:33:34.597Z,3.50
2023-04-26T21:36:01.917Z,3.55
2023-04-26T21:38:28.410Z,2.90
2023-04-26T21:40:54.953Z,3.90
2023-04-26T21:43:21.818Z,3.15
2023-04-26T21:45:50.143Z,3.30
2023-04-26T21:48:16.873Z,3.45
2023-04-26T21:50:43.390Z,3.45
2023-04-26T21:53:09.860Z,3.85
2023-04-26T21:55:36.331Z,3.97
2023-04-26T21:58:02.821Z,3.85
2023-04-26T22:00:29.537Z,4.38
2023-04-26T22:02:56.370Z,3.97
2023-04-26T22:05:25.696Z,3.88
2023-04-26T22:07:53.765Z,3.50
2023-04-26T22:10:20.826Z,3.58
2023-04-26T22:12:47.342Z,3.78
2023-04-26T22:15:13.932Z,3.00
2023-04-26T22:17:40.670Z,3.60
2023-04-26T22:20:07.905Z,3.40
2023-04-26T22:22:34.468Z,3.35
2023-04-26T22:25:01.023Z,3.22
2023-04-26T22:27:27.545Z,3.72
2023-04-26T22:29:53.976Z,3.55
2023-04-26T22:32:20.591Z,3.83
2023-04-26T22:34:47.097Z,3.40
2023-04-26T22:37:21.384Z,3.90
2023-04-26T22:39:49.191Z,3.20
2023-04-26T22:42:15.796Z,3.35
2023-04-26T22:44:42.300Z,3.42
2023-04-26T22:47:08.876Z,3.53
2023-04-26T22:49:35.615Z,3.70
2023-04-26T22:52:11.702Z,3.55
2023-04-26T22:54:43.713Z,3.58
2023-04-26T22:57:10.366Z,3.55
2023-04-26T22:59:36.889Z,3.72
2023-04-26T23:02:03.407Z,3.22
2023-04-26T23:04:29.886Z,2.72
2023-04-26T23:06:56.516Z,2.88
2023-04-26T23:09:23.052Z,3.13
2023-04-26T23:11:49.665Z,2.95
2023-04-26T23:14:16.528Z,3.00
2023-04-26T23:16:43.086Z,3.10
2023-04-26T23:19:10.276Z,3.63
2023-04-26T23:21:37.121Z,3.20
2023-04-26T23:24:04.513Z,3.42
2023-04-26T23:26:31.193Z,3.80
2023-04-26T23:28:57.671Z,3.20
2023-04-26T23:31:24.245Z,3.80
2023-04-26T23:33:50.752Z,3.63
2023-04-26T23:36:17.208Z,3.47
2023-04-26T23:38:43.665Z,3.45
2023-04-26T23:41:10.140Z,3.97
2023-04-26T23:43:36.649Z,3.50
2023-04-26T23:46:03.204Z,3.30
2023-04-26T23:48:29.754Z,3.60
2023-04-26T23:50:56.381Z,3.20
2023-04-26T23:53:22.896Z,3.58
2023-04-26T23:55:49.441Z,4.03
2023-04-26T23:58:16.005Z,3.70
